Погода Коромкана неделю

Гомельская область, Белоруссия

19 - 25 июля
  • 19июля
    Сегодня
    +15°
    +27°
    Ясно и безоблачно
    ВремяПогодаТемператураВлажностьДавлениеВетер, м/сВероятность осадков
    00:00Ясно и безоблачно+20°C95 %750 мм2.8 м/с17 %
    03:00Ясно и безоблачно+19°C97 %750 мм3.1 м/с2 %
    06:00Небольшая облачность+19°C96 %750 мм2.7 м/с2 %
    09:00Практически безоблачно+21°C82 %750 мм4.5 м/с5 %
    12:00Небольшая облачность+25°C60 %750 мм4.6 м/с11 %
    15:00Ясно и безоблачно+27°C51 %749 мм5.2 м/с2 %
    18:00Ясно и безоблачно+26°C51 %748 мм5.5 м/с2 %
    21:00Ясно и безоблачно+22°C68 %748 мм3.4 м/с2 %
  • 20июля
    Суббота
    +16°
    +27°
    Небольшая облачность и лёгкий дождик
    ВремяПогодаТемператураВлажностьДавлениеВетер, м/сВероятность осадков
    00:00Ясно и безоблачно+19°C78 %748 мм2.4 м/с2 %
    03:00Ясно и безоблачно+17°C81 %748 мм2.8 м/с2 %
    06:00Ясно и безоблачно+16°C81 %747 мм2.1 м/с2 %
    09:00Ясно и безоблачно+21°C68 %747 мм3.1 м/с2 %
    12:00Практически безоблачно+24°C51 %747 мм4.1 м/с21 %
    15:00Небольшая облачность и лёгкий дождик+26°C47 %746 мм4.3 м/с32 %
    18:00Практически безоблачно+26°C48 %746 мм4.8 м/с30 %
    21:00Небольшая облачность+22°C68 %746 мм2.3 м/с2 %
  • 21июля
    Воскресенье
    +16°
    +27°
    Практически безоблачно
    ВремяПогодаТемператураВлажностьДавлениеВетер, м/сВероятность осадков
    00:00Ясно и безоблачно+19°C84 %746 мм1.6 м/с2 %
    03:00Небольшая облачность+17°C89 %746 мм1.9 м/с2 %
    06:00Ясно и безоблачно+17°C91 %746 мм1.1 м/с2 %
    09:00Ясно и безоблачно+22°C63 %746 мм1.9 м/с2 %
    12:00Ясно и безоблачно+25°C50 %746 мм2.2 м/с14 %
    15:00Практически безоблачно+26°C47 %746 мм2.1 м/с22 %
    18:00Практически безоблачно+26°C48 %745 мм4.3 м/с19 %
    21:00Ясно и безоблачно+22°C69 %745 мм2.0 м/с7 %
  • 22июля
    Понедельник
    +16°
    +28°
    Практически безоблачно
    ВремяПогодаТемператураВлажностьДавлениеВетер, м/сВероятность осадков
    00:00Ясно и безоблачно+19°C81 %745 мм1.6 м/с4 %
    03:00Практически безоблачно+18°C87 %745 мм2.1 м/с4 %
    06:00Практически безоблачно+18°C88 %745 мм1.4 м/с7 %
    09:00Практически безоблачно+22°C70 %746 мм2.1 м/с8 %
    12:00Ясно и безоблачно+26°C57 %746 мм2.8 м/с28 %
    15:00Практически безоблачно+27°C54 %746 мм3.2 м/с48 %
    18:00Небольшая облачность, возможен дождь с грозой+26°C60 %745 мм4.7 м/с52 %
    21:00Ясно и безоблачно+22°C82 %745 мм2.2 м/с13 %
  • 23июля
    Вторник
    +17°
    +28°
    Ясно и безоблачно
    ВремяПогодаТемператураВлажностьДавлениеВетер, м/сВероятность осадков
    00:00Ясно и безоблачно+19°C93 %746 мм1.8 м/с2 %
    03:00Ясно и безоблачно+17°C96 %745 мм2.3 м/с5 %
    06:00Практически безоблачно+17°C98 %745 мм1.9 м/с5 %
    09:00Ясно и безоблачно+22°C76 %746 мм3.0 м/с7 %
    12:00Практически безоблачно+26°C57 %746 мм3.1 м/с32 %
    15:00Ясно и безоблачно+28°C53 %745 мм4.0 м/с29 %
    18:00Ясно и безоблачно+27°C54 %745 мм4.4 м/с42 %
    21:00Ясно и безоблачно+22°C76 %745 мм2.3 м/с13 %
Мы используем cookies
Соглашаюсь